sensor_id;sensor_type;location;lat;lon;timestamp;P1;durP1;ratioP1;P2;durP2;ratioP2
55114;SDS011;41010;53.252;5.786;2024-03-22T00:02:26;63.85;;;26.77;;
55114;SDS011;41010;53.252;5.786;2024-03-22T00:04:52;65.05;;;28.92;;
55114;SDS011;41010;53.252;5.786;2024-03-22T00:07:21;60.42;;;27.67;;
55114;SDS011;41010;53.252;5.786;2024-03-22T00:09:47;57.08;;;27.48;;
55114;SDS011;41010;53.252;5.786;2024-03-22T00:12:14;59.35;;;27.10;;
55114;SDS011;41010;53.252;5.786;2024-03-22T00:14:41;67.85;;;29.08;;
55114;SDS011;41010;53.252;5.786;2024-03-22T00:17:08;68.22;;;27.77;;
55114;SDS011;41010;53.252;5.786;2024-03-22T00:19:34;61.90;;;28.83;;
55114;SDS011;41010;53.252;5.786;2024-03-22T00:22:02;66.85;;;28.27;;
55114;SDS011;41010;53.252;5.786;2024-03-22T00:24:29;74.57;;;28.83;;
55114;SDS011;41010;53.252;5.786;2024-03-22T00:26:56;65.72;;;28.17;;
55114;SDS011;41010;53.252;5.786;2024-03-22T00:29:23;66.90;;;28.60;;
55114;SDS011;41010;53.252;5.786;2024-03-22T00:31:51;71.53;;;28.77;;
55114;SDS011;41010;53.252;5.786;2024-03-22T00:34:17;71.03;;;29.10;;
55114;SDS011;41010;53.252;5.786;2024-03-22T00:36:45;74.53;;;29.80;;
55114;SDS011;41010;53.252;5.786;2024-03-22T00:39:11;73.45;;;30.83;;
55114;SDS011;41010;53.252;5.786;2024-03-22T00:41:40;79.05;;;30.10;;
55114;SDS011;41010;53.252;5.786;2024-03-22T00:44:06;78.18;;;31.50;;
55114;SDS011;41010;53.252;5.786;2024-03-22T00:46:33;78.88;;;30.80;;
55114;SDS011;41010;53.252;5.786;2024-03-22T00:49:00;80.72;;;29.98;;
55114;SDS011;41010;53.252;5.786;2024-03-22T00:51:28;82.43;;;30.58;;
55114;SDS011;41010;53.252;5.786;2024-03-22T00:53:54;86.72;;;31.00;;
55114;SDS011;41010;53.252;5.786;2024-03-22T00:56:21;84.60;;;31.75;;
55114;SDS011;41010;53.252;5.786;2024-03-22T00:58:49;85.35;;;32.00;;
55114;SDS011;41010;53.252;5.786;2024-03-22T01:01:17;86.18;;;31.60;;
55114;SDS011;41010;53.252;5.786;2024-03-22T01:03:43;81.13;;;30.83;;
55114;SDS011;41010;53.252;5.786;2024-03-22T01:06:10;85.25;;;31.15;;
55114;SDS011;41010;53.252;5.786;2024-03-22T01:08:37;84.82;;;32.10;;
55114;SDS011;41010;53.252;5.786;2024-03-22T01:11:04;92.38;;;31.40;;
55114;SDS011;41010;53.252;5.786;2024-03-22T01:13:30;82.78;;;31.52;;
55114;SDS011;41010;53.252;5.786;2024-03-22T01:15:59;81.80;;;31.75;;
55114;SDS011;41010;53.252;5.786;2024-03-22T01:18:25;88.75;;;32.10;;
55114;SDS011;41010;53.252;5.786;2024-03-22T01:20:52;86.00;;;31.27;;
55114;SDS011;41010;53.252;5.786;2024-03-22T01:23:18;86.22;;;32.55;;
55114;SDS011;41010;53.252;5.786;2024-03-22T01:25:45;89.55;;;31.75;;
55114;SDS011;41010;53.252;5.786;2024-03-22T01:28:12;77.80;;;30.45;;
55114;SDS011;41010;53.252;5.786;2024-03-22T01:30:39;83.70;;;30.88;;
55114;SDS011;41010;53.252;5.786;2024-03-22T01:33:06;81.07;;;30.63;;
55114;SDS011;41010;53.252;5.786;2024-03-22T01:35:34;80.55;;;30.48;;
55114;SDS011;41010;53.252;5.786;2024-03-22T01:38:00;78.18;;;29.77;;
55114;SDS011;41010;53.252;5.786;2024-03-22T01:40:27;75.43;;;30.95;;
55114;SDS011;41010;53.252;5.786;2024-03-22T01:42:55;79.72;;;31.42;;
55114;SDS011;41010;53.252;5.786;2024-03-22T01:45:22;76.78;;;29.10;;
55114;SDS011;41010;53.252;5.786;2024-03-22T01:47:49;74.40;;;29.17;;
55114;SDS011;41010;53.252;5.786;2024-03-22T01:50:18;79.63;;;28.30;;
55114;SDS011;41010;53.252;5.786;2024-03-22T01:52:44;71.03;;;27.13;;
55114;SDS011;41010;53.252;5.786;2024-03-22T01:55:11;69.88;;;28.20;;
55114;SDS011;41010;53.252;5.786;2024-03-22T01:57:38;75.75;;;26.95;;
55114;SDS011;41010;53.252;5.786;2024-03-22T02:00:06;75.18;;;26.15;;
55114;SDS011;41010;53.252;5.786;2024-03-22T02:02:33;68.97;;;25.95;;
55114;SDS011;41010;53.252;5.786;2024-03-22T02:05:10;66.65;;;25.00;;
55114;SDS011;41010;53.252;5.786;2024-03-22T02:07:38;63.58;;;24.65;;
55114;SDS011;41010;53.252;5.786;2024-03-22T02:10:06;68.97;;;25.38;;
55114;SDS011;41010;53.252;5.786;2024-03-22T02:12:33;60.78;;;24.35;;
55114;SDS011;41010;53.252;5.786;2024-03-22T02:15:01;68.28;;;25.20;;
55114;SDS011;41010;53.252;5.786;2024-03-22T02:17:28;66.22;;;24.65;;
55114;SDS011;41010;53.252;5.786;2024-03-22T02:19:55;64.07;;;24.05;;
55114;SDS011;41010;53.252;5.786;2024-03-22T02:22:21;62.53;;;24.58;;
55114;SDS011;41010;53.252;5.786;2024-03-22T02:24:50;58.90;;;24.20;;
55114;SDS011;41010;53.252;5.786;2024-03-22T02:27:16;70.38;;;24.67;;
55114;SDS011;41010;53.252;5.786;2024-03-22T02:29:43;74.07;;;24.45;;
55114;SDS011;41010;53.252;5.786;2024-03-22T02:32:09;60.80;;;25.20;;
55114;SDS011;41010;53.252;5.786;2024-03-22T02:34:37;63.17;;;24.20;;
55114;SDS011;41010;53.252;5.786;2024-03-22T02:37:03;65.95;;;24.27;;
55114;SDS011;41010;53.252;5.786;2024-03-22T02:39:30;61.58;;;23.45;;
55114;SDS011;41010;53.252;5.786;2024-03-22T02:41:58;65.55;;;23.63;;
55114;SDS011;41010;53.252;5.786;2024-03-22T02:44:25;64.43;;;23.25;;
55114;SDS011;41010;53.252;5.786;2024-03-22T02:46:51;56.90;;;22.67;;
55114;SDS011;41010;53.252;5.786;2024-03-22T02:49:19;58.50;;;23.00;;
55114;SDS011;41010;53.252;5.786;2024-03-22T02:51:45;54.38;;;21.35;;
55114;SDS011;41010;53.252;5.786;2024-03-22T02:54:12;54.95;;;22.40;;
55114;SDS011;41010;53.252;5.786;2024-03-22T02:56:38;58.72;;;22.60;;
55114;SDS011;41010;53.252;5.786;2024-03-22T02:59:07;70.85;;;23.27;;
55114;SDS011;41010;53.252;5.786;2024-03-22T03:01:33;57.70;;;22.10;;
55114;SDS011;41010;53.252;5.786;2024-03-22T03:04:00;57.90;;;22.40;;
55114;SDS011;41010;53.252;5.786;2024-03-22T03:06:27;63.28;;;22.20;;
55114;SDS011;41010;53.252;5.786;2024-03-22T03:08:54;58.70;;;22.38;;
55114;SDS011;41010;53.252;5.786;2024-03-22T03:11:20;60.22;;;22.48;;
55114;SDS011;41010;53.252;5.786;2024-03-22T03:13:47;62.03;;;21.75;;
55114;SDS011;41010;53.252;5.786;2024-03-22T03:16:15;66.85;;;22.25;;
55114;SDS011;41010;53.252;5.786;2024-03-22T03:18:42;59.70;;;22.13;;
55114;SDS011;41010;53.252;5.786;2024-03-22T03:21:08;57.58;;;21.73;;
55114;SDS011;41010;53.252;5.786;2024-03-22T03:23:36;60.63;;;21.38;;
55114;SDS011;41010;53.252;5.786;2024-03-22T03:26:02;54.70;;;21.75;;
55114;SDS011;41010;53.252;5.786;2024-03-22T03:28:29;71.70;;;22.60;;
55114;SDS011;41010;53.252;5.786;2024-03-22T03:30:55;67.00;;;21.95;;
55114;SDS011;41010;53.252;5.786;2024-03-22T03:33:24;59.35;;;21.42;;
55114;SDS011;41010;53.252;5.786;2024-03-22T03:35:50;62.47;;;21.83;;
55114;SDS011;41010;53.252;5.786;2024-03-22T03:38:18;65.32;;;21.15;;
55114;SDS011;41010;53.252;5.786;2024-03-22T03:40:44;52.88;;;19.52;;
55114;SDS011;41010;53.252;5.786;2024-03-22T03:43:11;57.47;;;19.42;;
55114;SDS011;41010;53.252;5.786;2024-03-22T03:45:37;59.25;;;18.98;;
55114;SDS011;41010;53.252;5.786;2024-03-22T03:48:05;50.47;;;19.25;;
55114;SDS011;41010;53.252;5.786;2024-03-22T03:50:32;59.75;;;20.38;;
55114;SDS011;41010;53.252;5.786;2024-03-22T03:52:59;59.33;;;18.67;;
55114;SDS011;41010;53.252;5.786;2024-03-22T03:55:26;53.97;;;19.02;;
55114;SDS011;41010;53.252;5.786;2024-03-22T03:57:53;53.88;;;19.25;;
55114;SDS011;41010;53.252;5.786;2024-03-22T04:00:19;61.38;;;19.25;;
55114;SDS011;41010;53.252;5.786;2024-03-22T04:02:48;50.33;;;17.35;;
55114;SDS011;41010;53.252;5.786;2024-03-22T04:05:15;47.72;;;17.60;;
55114;SDS011;41010;53.252;5.786;2024-03-22T04:07:46;45.40;;;16.55;;
55114;SDS011;41010;53.252;5.786;2024-03-22T04:10:12;51.17;;;16.92;;
55114;SDS011;41010;53.252;5.786;2024-03-22T04:12:40;46.80;;;17.40;;
55114;SDS011;41010;53.252;5.786;2024-03-22T04:15:06;49.92;;;16.17;;
55114;SDS011;41010;53.252;5.786;2024-03-22T04:17:34;48.58;;;16.15;;
55114;SDS011;41010;53.252;5.786;2024-03-22T04:20:00;47.53;;;15.77;;
55114;SDS011;41010;53.252;5.786;2024-03-22T04:22:27;48.65;;;16.35;;
55114;SDS011;41010;53.252;5.786;2024-03-22T04:24:55;46.17;;;15.70;;
55114;SDS011;41010;53.252;5.786;2024-03-22T04:27:22;57.78;;;16.38;;
55114;SDS011;41010;53.252;5.786;2024-03-22T04:29:48;47.78;;;16.40;;
55114;SDS011;41010;53.252;5.786;2024-03-22T04:32:16;53.28;;;16.05;;
55114;SDS011;41010;53.252;5.786;2024-03-22T04:34:42;50.75;;;15.55;;
55114;SDS011;41010;53.252;5.786;2024-03-22T04:37:09;48.90;;;15.60;;
55114;SDS011;41010;53.252;5.786;2024-03-22T04:39:37;42.33;;;15.07;;
55114;SDS011;41010;53.252;5.786;2024-03-22T04:42:06;50.08;;;15.20;;
55114;SDS011;41010;53.252;5.786;2024-03-22T04:44:33;46.33;;;15.13;;
55114;SDS011;41010;53.252;5.786;2024-03-22T04:47:01;46.85;;;14.10;;
55114;SDS011;41010;53.252;5.786;2024-03-22T04:49:27;40.65;;;13.63;;
55114;SDS011;41010;53.252;5.786;2024-03-22T04:51:54;49.78;;;13.77;;
55114;SDS011;41010;53.252;5.786;2024-03-22T04:54:20;47.10;;;13.63;;
55114;SDS011;41010;53.252;5.786;2024-03-22T04:56:48;45.72;;;13.60;;
55114;SDS011;41010;53.252;5.786;2024-03-22T04:59:15;45.58;;;13.55;;
55114;SDS011;41010;53.252;5.786;2024-03-22T05:01:42;40.10;;;13.00;;
55114;SDS011;41010;53.252;5.786;2024-03-22T05:04:09;37.63;;;14.10;;
55114;SDS011;41010;53.252;5.786;2024-03-22T05:06:37;39.95;;;12.90;;
55114;SDS011;41010;53.252;5.786;2024-03-22T05:09:03;51.45;;;13.60;;
55114;SDS011;41010;53.252;5.786;2024-03-22T05:11:30;46.72;;;14.82;;
55114;SDS011;41010;53.252;5.786;2024-03-22T05:13:57;42.63;;;13.45;;
55114;SDS011;41010;53.252;5.786;2024-03-22T05:16:25;42.33;;;12.27;;
55114;SDS011;41010;53.252;5.786;2024-03-22T05:18:52;50.92;;;13.65;;
55114;SDS011;41010;53.252;5.786;2024-03-22T05:21:19;43.85;;;13.05;;
55114;SDS011;41010;53.252;5.786;2024-03-22T05:23:45;56.25;;;13.23;;
55114;SDS011;41010;53.252;5.786;2024-03-22T05:26:12;43.05;;;11.88;;
55114;SDS011;41010;53.252;5.786;2024-03-22T05:28:39;44.10;;;12.48;;
55114;SDS011;41010;53.252;5.786;2024-03-22T05:31:06;49.03;;;13.40;;
55114;SDS011;41010;53.252;5.786;2024-03-22T05:33:34;47.50;;;13.20;;
55114;SDS011;41010;53.252;5.786;2024-03-22T05:36:02;52.53;;;13.93;;
55114;SDS011;41010;53.252;5.786;2024-03-22T05:38:28;48.20;;;13.23;;
55114;SDS011;41010;53.252;5.786;2024-03-22T05:40:55;54.58;;;13.07;;
55114;SDS011;41010;53.252;5.786;2024-03-22T05:43:21;55.72;;;14.23;;
55114;SDS011;41010;53.252;5.786;2024-03-22T05:45:49;57.30;;;14.68;;
55114;SDS011;41010;53.252;5.786;2024-03-22T05:48:15;50.70;;;15.07;;
55114;SDS011;41010;53.252;5.786;2024-03-22T05:50:44;55.47;;;15.23;;
55114;SDS011;41010;53.252;5.786;2024-03-22T05:53:10;48.65;;;15.05;;
55114;SDS011;41010;53.252;5.786;2024-03-22T05:55:37;46.92;;;14.43;;
55114;SDS011;41010;53.252;5.786;2024-03-22T05:58:03;45.35;;;14.88;;
55114;SDS011;41010;53.252;5.786;2024-03-22T06:00:30;54.30;;;15.10;;
55114;SDS011;41010;53.252;5.786;2024-03-22T06:02:57;56.58;;;15.02;;
55114;SDS011;41010;53.252;5.786;2024-03-22T06:05:24;60.50;;;17.77;;
55114;SDS011;41010;53.252;5.786;2024-03-22T06:07:52;47.53;;;13.57;;
55114;SDS011;41010;53.252;5.786;2024-03-22T06:10:19;45.10;;;13.95;;
55114;SDS011;41010;53.252;5.786;2024-03-22T06:12:46;45.95;;;13.60;;
55114;SDS011;41010;53.252;5.786;2024-03-22T06:15:13;55.25;;;14.95;;
55114;SDS011;41010;53.252;5.786;2024-03-22T06:17:40;55.55;;;15.85;;
55114;SDS011;41010;53.252;5.786;2024-03-22T06:20:08;42.15;;;14.38;;
55114;SDS011;41010;53.252;5.786;2024-03-22T06:22:35;43.20;;;13.77;;
55114;SDS011;41010;53.252;5.786;2024-03-22T06:25:04;44.10;;;14.98;;
55114;SDS011;41010;53.252;5.786;2024-03-22T06:27:30;50.30;;;15.20;;
55114;SDS011;41010;53.252;5.786;2024-03-22T06:29:57;46.50;;;15.05;;
55114;SDS011;41010;53.252;5.786;2024-03-22T06:32:23;64.53;;;17.88;;
55114;SDS011;41010;53.252;5.786;2024-03-22T06:34:51;59.45;;;16.52;;
55114;SDS011;41010;53.252;5.786;2024-03-22T06:37:17;55.75;;;16.58;;
55114;SDS011;41010;53.252;5.786;2024-03-22T06:39:44;62.15;;;18.42;;
55114;SDS011;41010;53.252;5.786;2024-03-22T06:42:12;49.55;;;16.30;;
55114;SDS011;41010;53.252;5.786;2024-03-22T06:44:39;52.75;;;17.58;;
55114;SDS011;41010;53.252;5.786;2024-03-22T06:47:05;63.47;;;17.27;;
55114;SDS011;41010;53.252;5.786;2024-03-22T06:49:32;52.05;;;15.48;;
55114;SDS011;41010;53.252;5.786;2024-03-22T06:51:59;53.72;;;15.32;;
55114;SDS011;41010;53.252;5.786;2024-03-22T06:54:26;50.63;;;15.70;;
55114;SDS011;41010;53.252;5.786;2024-03-22T06:56:52;57.08;;;17.88;;
55114;SDS011;41010;53.252;5.786;2024-03-22T06:59:21;52.75;;;16.33;;
55114;SDS011;41010;53.252;5.786;2024-03-22T07:01:47;47.65;;;15.80;;
55114;SDS011;41010;53.252;5.786;2024-03-22T07:04:14;59.60;;;18.17;;
55114;SDS011;41010;53.252;5.786;2024-03-22T07:06:40;56.90;;;16.88;;
55114;SDS011;41010;53.252;5.786;2024-03-22T07:09:08;58.83;;;19.02;;
55114;SDS011;41010;53.252;5.786;2024-03-22T07:11:34;60.03;;;18.35;;
55114;SDS011;41010;53.252;5.786;2024-03-22T07:14:01;51.30;;;17.23;;
55114;SDS011;41010;53.252;5.786;2024-03-22T07:16:29;56.13;;;17.58;;
55114;SDS011;41010;53.252;5.786;2024-03-22T07:18:56;55.85;;;16.80;;
55114;SDS011;41010;53.252;5.786;2024-03-22T07:21:22;61.30;;;18.98;;
55114;SDS011;41010;53.252;5.786;2024-03-22T07:23:50;51.15;;;16.42;;
55114;SDS011;41010;53.252;5.786;2024-03-22T07:26:16;51.47;;;15.63;;
55114;SDS011;41010;53.252;5.786;2024-03-22T07:28:43;56.70;;;16.98;;
55114;SDS011;41010;53.252;5.786;2024-03-22T07:31:10;53.65;;;16.75;;
55114;SDS011;41010;53.252;5.786;2024-03-22T07:33:38;38.35;;;13.48;;
55114;SDS011;41010;53.252;5.786;2024-03-22T07:36:05;52.45;;;17.08;;
55114;SDS011;41010;53.252;5.786;2024-03-22T07:38:32;46.28;;;15.88;;
55114;SDS011;41010;53.252;5.786;2024-03-22T07:40:59;38.42;;;13.32;;
55114;SDS011;41010;53.252;5.786;2024-03-22T07:43:26;48.13;;;13.60;;
55114;SDS011;41010;53.252;5.786;2024-03-22T07:45:52;43.28;;;13.25;;
55114;SDS011;41010;53.252;5.786;2024-03-22T07:48:20;51.70;;;15.32;;
55114;SDS011;41010;53.252;5.786;2024-03-22T07:50:55;37.08;;;13.45;;
55114;SDS011;41010;53.252;5.786;2024-03-22T07:53:22;33.72;;;12.50;;
55114;SDS011;41010;53.252;5.786;2024-03-22T07:55:48;38.70;;;13.13;;
55114;SDS011;41010;53.252;5.786;2024-03-22T07:58:16;46.13;;;14.25;;
55114;SDS011;41010;53.252;5.786;2024-03-22T08:00:42;36.22;;;14.43;;
55114;SDS011;41010;53.252;5.786;2024-03-22T08:03:09;42.20;;;14.23;;
55114;SDS011;41010;53.252;5.786;2024-03-22T08:05:39;46.97;;;15.48;;
55114;SDS011;41010;53.252;5.786;2024-03-22T08:08:08;38.35;;;14.13;;
55114;SDS011;41010;53.252;5.786;2024-03-22T08:10:34;47.33;;;14.48;;
55114;SDS011;41010;53.252;5.786;2024-03-22T08:13:02;42.22;;;13.27;;
55114;SDS011;41010;53.252;5.786;2024-03-22T08:15:29;41.92;;;13.93;;
55114;SDS011;41010;53.252;5.786;2024-03-22T08:17:56;36.80;;;13.68;;
55114;SDS011;41010;53.252;5.786;2024-03-22T08:20:22;43.33;;;14.40;;
55114;SDS011;41010;53.252;5.786;2024-03-22T08:22:50;37.53;;;14.27;;
55114;SDS011;41010;53.252;5.786;2024-03-22T08:25:17;47.00;;;15.40;;
55114;SDS011;41010;53.252;5.786;2024-03-22T08:27:45;39.63;;;14.60;;
55114;SDS011;41010;53.252;5.786;2024-03-22T08:30:12;45.35;;;15.30;;
55114;SDS011;41010;53.252;5.786;2024-03-22T08:32:40;51.08;;;14.88;;
55114;SDS011;41010;53.252;5.786;2024-03-22T08:35:06;39.38;;;12.95;;
55114;SDS011;41010;53.252;5.786;2024-03-22T08:37:33;36.05;;;14.48;;
55114;SDS011;41010;53.252;5.786;2024-03-22T08:40:00;41.95;;;13.95;;
55114;SDS011;41010;53.252;5.786;2024-03-22T08:42:31;46.17;;;15.40;;
55114;SDS011;41010;53.252;5.786;2024-03-22T08:44:57;44.70;;;14.60;;
55114;SDS011;41010;53.252;5.786;2024-03-22T08:47:24;50.75;;;12.88;;
55114;SDS011;41010;53.252;5.786;2024-03-22T08:49:51;41.15;;;13.60;;
55114;SDS011;41010;53.252;5.786;2024-03-22T08:52:18;35.13;;;12.38;;
55114;SDS011;41010;53.252;5.786;2024-03-22T08:54:44;53.95;;;13.38;;
55114;SDS011;41010;53.252;5.786;2024-03-22T08:57:11;35.90;;;11.75;;
55114;SDS011;41010;53.252;5.786;2024-03-22T08:59:39;40.28;;;12.07;;
55114;SDS011;41010;53.252;5.786;2024-03-22T09:02:06;45.55;;;13.27;;
55114;SDS011;41010;53.252;5.786;2024-03-22T09:04:32;34.53;;;11.88;;
55114;SDS011;41010;53.252;5.786;2024-03-22T09:07:00;34.60;;;11.05;;
55114;SDS011;41010;53.252;5.786;2024-03-22T09:09:26;33.63;;;10.55;;
55114;SDS011;41010;53.252;5.786;2024-03-22T09:11:53;31.35;;;11.52;;
55114;SDS011;41010;53.252;5.786;2024-03-22T09:14:19;30.27;;;10.65;;
55114;SDS011;41010;53.252;5.786;2024-03-22T09:16:48;40.90;;;11.43;;
55114;SDS011;41010;53.252;5.786;2024-03-22T09:19:15;36.33;;;11.32;;
55114;SDS011;41010;53.252;5.786;2024-03-22T09:21:42;31.52;;;10.52;;
55114;SDS011;41010;53.252;5.786;2024-03-22T09:24:09;32.83;;;10.45;;
55114;SDS011;41010;53.252;5.786;2024-03-22T09:26:35;41.63;;;10.48;;
55114;SDS011;41010;53.252;5.786;2024-03-22T09:29:02;38.65;;;11.13;;
55114;SDS011;41010;53.252;5.786;2024-03-22T09:31:29;41.00;;;10.65;;
55114;SDS011;41010;53.252;5.786;2024-03-22T09:33:59;35.20;;;11.13;;
55114;SDS011;41010;53.252;5.786;2024-03-22T09:36:25;47.75;;;12.18;;
55114;SDS011;41010;53.252;5.786;2024-03-22T09:38:52;42.75;;;10.63;;
55114;SDS011;41010;53.252;5.786;2024-03-22T09:41:19;50.58;;;10.73;;
55114;SDS011;41010;53.252;5.786;2024-03-22T09:43:49;41.17;;;11.38;;
55114;SDS011;41010;53.252;5.786;2024-03-22T09:46:17;43.63;;;10.85;;
55114;SDS011;41010;53.252;5.786;2024-03-22T09:48:45;43.35;;;9.43;;
55114;SDS011;41010;53.252;5.786;2024-03-22T09:51:14;34.47;;;10.00;;
55114;SDS011;41010;53.252;5.786;2024-03-22T09:53:42;31.45;;;9.38;;
55114;SDS011;41010;53.252;5.786;2024-03-22T09:56:09;40.15;;;9.20;;
55114;SDS011;41010;53.252;5.786;2024-03-22T09:58:37;36.92;;;9.65;;
55114;SDS011;41010;53.252;5.786;2024-03-22T10:01:04;41.17;;;9.38;;
55114;SDS011;41010;53.252;5.786;2024-03-22T10:03:31;37.65;;;8.70;;
55114;SDS011;41010;53.252;5.786;2024-03-22T10:05:58;25.02;;;7.90;;
55114;SDS011;41010;53.252;5.786;2024-03-22T10:08:26;30.02;;;9.00;;
55114;SDS011;41010;53.252;5.786;2024-03-22T10:10:53;23.52;;;6.72;;
55114;SDS011;41010;53.252;5.786;2024-03-22T10:13:20;20.98;;;6.55;;
55114;SDS011;41010;53.252;5.786;2024-03-22T10:15:46;17.73;;;6.22;;
55114;SDS011;41010;53.252;5.786;2024-03-22T10:18:14;23.27;;;5.53;;
55114;SDS011;41010;53.252;5.786;2024-03-22T10:20:40;23.58;;;6.45;;
55114;SDS011;41010;53.252;5.786;2024-03-22T10:23:08;20.45;;;5.20;;
55114;SDS011;41010;53.252;5.786;2024-03-22T10:25:35;16.15;;;5.50;;
55114;SDS011;41010;53.252;5.786;2024-03-22T10:28:03;26.17;;;5.40;;
55114;SDS011;41010;53.252;5.786;2024-03-22T10:30:30;19.33;;;5.45;;
55114;SDS011;41010;53.252;5.786;2024-03-22T10:32:57;14.57;;;4.40;;
55114;SDS011;41010;53.252;5.786;2024-03-22T10:35:23;16.52;;;5.07;;
55114;SDS011;41010;53.252;5.786;2024-03-22T10:37:52;14.43;;;5.20;;
55114;SDS011;41010;53.252;5.786;2024-03-22T10:40:18;19.02;;;5.28;;
55114;SDS011;41010;53.252;5.786;2024-03-22T10:42:48;19.25;;;5.68;;
55114;SDS011;41010;53.252;5.786;2024-03-22T10:45:14;22.83;;;5.03;;
55114;SDS011;41010;53.252;5.786;2024-03-22T10:47:41;16.63;;;5.50;;
55114;SDS011;41010;53.252;5.786;2024-03-22T10:50:08;20.63;;;5.15;;
55114;SDS011;41010;53.252;5.786;2024-03-22T10:52:37;20.35;;;5.07;;
55114;SDS011;41010;53.252;5.786;2024-03-22T10:55:04;17.67;;;5.00;;
55114;SDS011;41010;53.252;5.786;2024-03-22T10:57:33;17.75;;;5.10;;
55114;SDS011;41010;53.252;5.786;2024-03-22T11:00:04;15.60;;;5.22;;
55114;SDS011;41010;53.252;5.786;2024-03-22T11:02:35;13.38;;;5.75;;
55114;SDS011;41010;53.252;5.786;2024-03-22T11:05:01;20.42;;;5.50;;
55114;SDS011;41010;53.252;5.786;2024-03-22T11:07:29;21.45;;;5.95;;
55114;SDS011;41010;53.252;5.786;2024-03-22T11:09:56;24.40;;;6.25;;
55114;SDS011;41010;53.252;5.786;2024-03-22T11:12:24;21.52;;;5.63;;
55114;SDS011;41010;53.252;5.786;2024-03-22T11:14:51;25.10;;;5.82;;
55114;SDS011;41010;53.252;5.786;2024-03-22T11:17:19;18.65;;;6.15;;
55114;SDS011;41010;53.252;5.786;2024-03-22T11:19:48;20.27;;;5.28;;
55114;SDS011;41010;53.252;5.786;2024-03-22T11:22:15;17.85;;;5.65;;
55114;SDS011;41010;53.252;5.786;2024-03-22T11:24:42;20.92;;;5.60;;
55114;SDS011;41010;53.252;5.786;2024-03-22T11:27:10;22.05;;;5.15;;
55114;SDS011;41010;53.252;5.786;2024-03-22T11:29:36;21.15;;;5.22;;
55114;SDS011;41010;53.252;5.786;2024-03-22T11:32:06;20.58;;;4.47;;
55114;SDS011;41010;53.252;5.786;2024-03-22T11:34:35;19.15;;;4.45;;
55114;SDS011;41010;53.252;5.786;2024-03-22T11:37:02;19.98;;;3.95;;
55114;SDS011;41010;53.252;5.786;2024-03-22T11:39:28;12.18;;;4.30;;
55114;SDS011;41010;53.252;5.786;2024-03-22T11:41:56;25.63;;;4.22;;
55114;SDS011;41010;53.252;5.786;2024-03-22T11:44:22;18.42;;;4.18;;
55114;SDS011;41010;53.252;5.786;2024-03-22T11:46:50;16.17;;;3.97;;
55114;SDS011;41010;53.252;5.786;2024-03-22T11:49:17;20.95;;;4.85;;
55114;SDS011;41010;53.252;5.786;2024-03-22T11:51:46;15.77;;;4.20;;
55114;SDS011;41010;53.252;5.786;2024-03-22T11:54:12;12.75;;;3.97;;
55114;SDS011;41010;53.252;5.786;2024-03-22T11:56:39;16.05;;;4.00;;
55114;SDS011;41010;53.252;5.786;2024-03-22T11:59:06;14.55;;;3.60;;
55114;SDS011;41010;53.252;5.786;2024-03-22T12:01:33;22.17;;;4.40;;
55114;SDS011;41010;53.252;5.786;2024-03-22T12:03:59;23.80;;;4.22;;
55114;SDS011;41010;53.252;5.786;2024-03-22T12:06:27;22.63;;;3.33;;
55114;SDS011;41010;53.252;5.786;2024-03-22T12:08:55;20.02;;;4.22;;
55114;SDS011;41010;53.252;5.786;2024-03-22T12:11:22;20.73;;;3.85;;
55114;SDS011;41010;53.252;5.786;2024-03-22T12:13:48;18.42;;;4.25;;
55114;SDS011;41010;53.252;5.786;2024-03-22T12:16:15;23.48;;;4.72;;
55114;SDS011;41010;53.252;5.786;2024-03-22T12:18:42;25.05;;;4.88;;
55114;SDS011;41010;53.252;5.786;2024-03-22T12:21:09;21.60;;;3.95;;
55114;SDS011;41010;53.252;5.786;2024-03-22T12:23:35;21.25;;;4.65;;
55114;SDS011;41010;53.252;5.786;2024-03-22T12:26:04;15.13;;;3.70;;
55114;SDS011;41010;53.252;5.786;2024-03-22T12:28:32;24.77;;;3.92;;
55114;SDS011;41010;53.252;5.786;2024-03-22T12:30:59;17.35;;;3.53;;
55114;SDS011;41010;53.252;5.786;2024-03-22T12:33:25;16.55;;;3.55;;
55114;SDS011;41010;53.252;5.786;2024-03-22T12:35:52;17.90;;;4.20;;
55114;SDS011;41010;53.252;5.786;2024-03-22T12:38:19;16.70;;;3.40;;
55114;SDS011;41010;53.252;5.786;2024-03-22T12:40:46;22.77;;;3.22;;
55114;SDS011;41010;53.252;5.786;2024-03-22T12:43:14;14.48;;;2.75;;
55114;SDS011;41010;53.252;5.786;2024-03-22T12:45:42;19.52;;;3.28;;
55114;SDS011;41010;53.252;5.786;2024-03-22T12:48:08;15.00;;;2.97;;
55114;SDS011;41010;53.252;5.786;2024-03-22T12:50:35;20.33;;;3.20;;
55114;SDS011;41010;53.252;5.786;2024-03-22T12:53:02;25.75;;;3.30;;
55114;SDS011;41010;53.252;5.786;2024-03-22T12:55:30;24.20;;;4.40;;
55114;SDS011;41010;53.252;5.786;2024-03-22T12:57:56;20.58;;;3.35;;
55114;SDS011;41010;53.252;5.786;2024-03-22T13:00:25;18.75;;;3.03;;
55114;SDS011;41010;53.252;5.786;2024-03-22T13:02:51;23.38;;;3.28;;
55114;SDS011;41010;53.252;5.786;2024-03-22T13:05:18;30.25;;;3.40;;
55114;SDS011;41010;53.252;5.786;2024-03-22T13:07:45;24.75;;;4.05;;
55114;SDS011;41010;53.252;5.786;2024-03-22T13:10:12;24.60;;;4.60;;
55114;SDS011;41010;53.252;5.786;2024-03-22T13:12:38;22.25;;;3.60;;
55114;SDS011;41010;53.252;5.786;2024-03-22T13:15:06;25.83;;;3.55;;
55114;SDS011;41010;53.252;5.786;2024-03-22T13:17:34;25.08;;;3.55;;
55114;SDS011;41010;53.252;5.786;2024-03-22T13:20:01;20.67;;;3.97;;
55114;SDS011;41010;53.252;5.786;2024-03-22T13:22:35;21.55;;;3.30;;
55114;SDS011;41010;53.252;5.786;2024-03-22T13:25:02;29.83;;;4.13;;
55114;SDS011;41010;53.252;5.786;2024-03-22T13:27:31;24.90;;;3.53;;
55114;SDS011;41010;53.252;5.786;2024-03-22T13:29:59;26.67;;;3.53;;
55114;SDS011;41010;53.252;5.786;2024-03-22T13:32:25;21.08;;;3.00;;
55114;SDS011;41010;53.252;5.786;2024-03-22T13:34:53;25.60;;;3.90;;
55114;SDS011;41010;53.252;5.786;2024-03-22T13:37:20;26.48;;;3.53;;
55114;SDS011;41010;53.252;5.786;2024-03-22T13:39:47;18.48;;;2.88;;
55114;SDS011;41010;53.252;5.786;2024-03-22T13:42:14;23.13;;;4.03;;
55114;SDS011;41010;53.252;5.786;2024-03-22T13:44:41;22.77;;;4.63;;
55114;SDS011;41010;53.252;5.786;2024-03-22T13:47:08;28.77;;;3.78;;
55114;SDS011;41010;53.252;5.786;2024-03-22T13:49:35;28.92;;;4.15;;
55114;SDS011;41010;53.252;5.786;2024-03-22T13:52:03;24.08;;;3.38;;
55114;SDS011;41010;53.252;5.786;2024-03-22T13:54:30;24.15;;;3.88;;
55114;SDS011;41010;53.252;5.786;2024-03-22T13:56:57;24.73;;;4.90;;
55114;SDS011;41010;53.252;5.786;2024-03-22T13:59:25;25.98;;;3.78;;
55114;SDS011;41010;53.252;5.786;2024-03-22T14:01:51;22.65;;;3.65;;
55114;SDS011;41010;53.252;5.786;2024-03-22T14:04:18;21.40;;;3.50;;
55114;SDS011;41010;53.252;5.786;2024-03-22T14:06:45;20.38;;;3.53;;
55114;SDS011;41010;53.252;5.786;2024-03-22T14:09:13;26.70;;;4.38;;
55114;SDS011;41010;53.252;5.786;2024-03-22T14:11:40;22.63;;;4.05;;
55114;SDS011;41010;53.252;5.786;2024-03-22T14:14:08;23.15;;;3.50;;
55114;SDS011;41010;53.252;5.786;2024-03-22T14:16:34;25.48;;;3.25;;
55114;SDS011;41010;53.252;5.786;2024-03-22T14:19:01;24.85;;;3.78;;
55114;SDS011;41010;53.252;5.786;2024-03-22T14:21:28;27.10;;;3.83;;
55114;SDS011;41010;53.252;5.786;2024-03-22T14:23:56;22.33;;;3.50;;
55114;SDS011;41010;53.252;5.786;2024-03-22T14:26:24;25.60;;;3.22;;